createdAt,value
2023-03-04T00:00:01.882Z,25.25
2023-03-04T00:02:29.147Z,23.95
2023-03-04T00:04:56.444Z,23.63
2023-03-04T00:07:23.783Z,25.50
2023-03-04T00:09:52.484Z,23.60
2023-03-04T00:12:19.786Z,24.25
2023-03-04T00:14:47.158Z,24.20
2023-03-04T00:17:14.461Z,23.27
2023-03-04T00:19:41.735Z,23.73
2023-03-04T00:22:09.165Z,24.65
2023-03-04T00:24:36.517Z,24.13
2023-03-04T00:27:05.349Z,24.27
2023-03-04T00:29:32.645Z,22.48
2023-03-04T00:32:00.043Z,22.50
2023-03-04T00:34:27.488Z,21.98
2023-03-04T00:36:54.937Z,23.40
2023-03-04T00:39:22.270Z,22.65
2023-03-04T00:41:49.569Z,22.60
2023-03-04T00:44:18.834Z,20.02
2023-03-04T00:46:46.185Z,20.35
2023-03-04T00:49:13.504Z,20.05
2023-03-04T00:51:40.857Z,20.45
2023-03-04T00:54:08.165Z,20.35
2023-03-04T00:56:35.502Z,18.40
2023-03-04T00:59:02.949Z,20.58
2023-03-04T01:01:31.605Z,21.60
2023-03-04T01:03:58.940Z,20.40
2023-03-04T01:06:26.291Z,19.95
2023-03-04T01:08:53.589Z,18.60
2023-03-04T01:11:20.882Z,18.92
2023-03-04T01:13:48.435Z,16.33
2023-03-04T01:16:15.838Z,17.83
2023-03-04T01:18:44.683Z,18.13
2023-03-04T01:21:11.963Z,18.30
2023-03-04T01:23:39.284Z,16.02
2023-03-04T01:26:06.628Z,16.83
2023-03-04T01:28:35.697Z,15.20
2023-03-04T01:31:03.100Z,15.25
2023-03-04T01:33:31.202Z,14.90
2023-03-04T01:35:59.847Z,15.40
2023-03-04T01:38:27.427Z,16.35
2023-03-04T01:40:55.030Z,17.30
2023-03-04T01:43:23.566Z,15.07
2023-03-04T01:45:51.674Z,14.90
2023-03-04T01:48:20.588Z,14.35
2023-03-04T01:50:47.993Z,13.93
2023-03-04T01:53:18.647Z,13.57
2023-03-04T01:55:46.077Z,14.07
2023-03-04T01:58:13.499Z,14.13
2023-03-04T02:00:41.110Z,14.50
2023-03-04T02:03:09.517Z,12.60
2023-03-04T02:05:38.025Z,12.30
2023-03-04T02:08:06.123Z,12.93
2023-03-04T02:10:34.839Z,13.98
2023-03-04T02:13:02.899Z,16.23
2023-03-04T02:15:30.335Z,14.25
2023-03-04T02:17:57.755Z,13.75
2023-03-04T02:20:41.426Z,15.77
2023-03-04T02:23:11.457Z,13.68
2023-03-04T02:25:43.535Z,14.00
2023-03-04T02:28:12.221Z,14.93
2023-03-04T02:30:39.619Z,15.40
2023-03-04T02:33:07.149Z,14.00
2023-03-04T02:35:34.487Z,13.23
2023-03-04T02:38:01.782Z,13.68
2023-03-04T02:40:30.307Z,13.98
2023-03-04T02:42:59.302Z,14.63
2023-03-04T02:45:36.383Z,13.10
2023-03-04T02:48:03.733Z,12.40
2023-03-04T02:50:32.751Z,13.15
2023-03-04T02:53:00.121Z,12.63
2023-03-04T02:55:28.206Z,11.88
2023-03-04T02:57:55.507Z,12.73
2023-03-04T03:00:22.889Z,11.50
2023-03-04T03:02:51.645Z,11.75
2023-03-04T03:05:19.203Z,10.68
2023-03-04T03:07:46.543Z,11.27
2023-03-04T03:10:14.026Z,10.30
2023-03-04T03:12:41.365Z,11.60
2023-03-04T03:15:09.054Z,12.00
2023-03-04T03:17:36.353Z,11.43
2023-03-04T03:20:05.532Z,11.98
2023-03-04T03:22:32.805Z,11.90
2023-03-04T03:25:00.170Z,11.43
2023-03-04T03:27:27.487Z,11.48
2023-03-04T03:29:54.794Z,11.18
2023-03-04T03:32:22.161Z,11.07
2023-03-04T03:34:49.661Z,10.38
2023-03-04T03:37:18.312Z,10.32
2023-03-04T03:39:45.733Z,11.23
2023-03-04T03:42:13.077Z,10.63
2023-03-04T03:44:40.356Z,10.82
2023-03-04T03:47:07.650Z,10.85
2023-03-04T03:49:34.996Z,11.23
2023-03-04T03:52:02.380Z,11.85
2023-03-04T03:54:31.054Z,12.07
2023-03-04T03:56:58.436Z,12.38
2023-03-04T03:59:25.786Z,11.70
2023-03-04T04:01:53.157Z,11.95
2023-03-04T04:04:20.534Z,11.85
2023-03-04T04:06:47.840Z,10.90
2023-03-04T04:09:15.256Z,10.48
2023-03-04T04:11:43.908Z,11.15
2023-03-04T04:14:13.776Z,11.35
2023-03-04T04:16:41.327Z,12.15
2023-03-04T04:19:08.648Z,11.15
2023-03-04T04:21:35.993Z,11.02
2023-03-04T04:24:03.297Z,10.00
2023-03-04T04:26:30.617Z,10.18
2023-03-04T04:28:59.314Z,8.02
2023-03-04T04:31:26.629Z,7.82
2023-03-04T04:33:53.944Z,8.73
2023-03-04T04:36:21.279Z,7.93
2023-03-04T04:38:49.278Z,7.97
2023-03-04T04:41:19.572Z,7.90
2023-03-04T04:43:46.989Z,7.82
2023-03-04T04:46:15.954Z,7.25
2023-03-04T04:48:43.304Z,6.85
2023-03-04T04:51:10.682Z,7.70
2023-03-04T04:53:38.247Z,6.68
2023-03-04T04:56:12.424Z,6.65
2023-03-04T04:58:39.968Z,6.80
2023-03-04T05:01:07.555Z,6.60
2023-03-04T05:03:37.172Z,6.47
2023-03-04T05:06:08.432Z,6.75
2023-03-04T05:08:36.072Z,6.20
2023-03-04T05:11:04.335Z,6.75
2023-03-04T05:13:31.733Z,5.63
2023-03-04T05:15:59.213Z,5.40
2023-03-04T05:18:27.763Z,5.72
2023-03-04T05:20:57.686Z,5.72
2023-03-04T05:23:25.479Z,5.15
2023-03-04T05:25:52.771Z,5.80
2023-03-04T05:28:20.312Z,5.72
2023-03-04T05:30:47.967Z,5.63
2023-03-04T05:33:16.278Z,4.95
2023-03-04T05:35:44.529Z,5.40
2023-03-04T05:38:13.921Z,5.10
2023-03-04T05:40:41.904Z,5.65
2023-03-04T05:43:09.228Z,5.05
2023-03-04T05:45:36.914Z,5.90
2023-03-04T05:48:04.537Z,5.53
2023-03-04T05:50:32.056Z,5.38
2023-03-04T05:52:59.493Z,5.15
2023-03-04T05:55:29.881Z,4.85
2023-03-04T05:57:57.617Z,5.57
2023-03-04T06:00:25.488Z,4.65
2023-03-04T06:02:52.877Z,4.80
2023-03-04T06:05:20.994Z,5.05
2023-03-04T06:07:48.445Z,5.65
2023-03-04T06:10:17.571Z,5.72
2023-03-04T06:12:46.316Z,4.90
2023-03-04T06:15:13.836Z,4.75
2023-03-04T06:17:42.346Z,4.97
2023-03-04T06:20:10.489Z,4.32
2023-03-04T06:22:37.811Z,5.35
2023-03-04T06:25:05.394Z,4.95
2023-03-04T06:27:32.745Z,5.40
2023-03-04T06:30:01.632Z,3.95
2023-03-04T06:32:29.254Z,4.53
2023-03-04T06:34:56.636Z,4.15
2023-03-04T06:37:24.303Z,4.78
2023-03-04T06:39:51.651Z,4.60
2023-03-04T06:42:19.328Z,4.72
2023-03-04T06:44:46.658Z,5.13
2023-03-04T06:47:15.871Z,5.10
2023-03-04T06:49:43.336Z,5.75
2023-03-04T06:52:12.782Z,4.53
2023-03-04T06:54:40.209Z,3.92
2023-03-04T06:57:07.591Z,5.03
2023-03-04T06:59:35.087Z,4.78
2023-03-04T07:02:02.519Z,4.30
2023-03-04T07:04:31.182Z,4.18
2023-03-04T07:06:58.582Z,5.43
2023-03-04T07:09:25.900Z,4.68
2023-03-04T07:11:53.210Z,4.68
2023-03-04T07:14:22.424Z,4.50
2023-03-04T07:16:51.086Z,4.13
2023-03-04T07:19:18.785Z,5.10
2023-03-04T07:21:47.783Z,5.28
2023-03-04T07:24:15.152Z,4.40
2023-03-04T07:26:42.523Z,4.20
2023-03-04T07:29:09.967Z,4.50
2023-03-04T07:31:37.443Z,3.80
2023-03-04T07:34:05.788Z,4.68
2023-03-04T07:36:33.581Z,4.35
2023-03-04T07:39:02.231Z,3.95
2023-03-04T07:41:30.138Z,4.55
2023-03-04T07:43:57.573Z,4.25
2023-03-04T07:46:24.937Z,4.53
2023-03-04T07:48:52.287Z,4.53
2023-03-04T07:51:20.759Z,4.63
2023-03-04T07:53:49.155Z,4.45
2023-03-04T07:56:18.701Z,3.92
2023-03-04T07:58:46.458Z,4.70
2023-03-04T08:01:14.560Z,4.50
2023-03-04T08:03:41.909Z,4.00
2023-03-04T08:06:09.579Z,4.25
2023-03-04T08:08:37.300Z,3.97
2023-03-04T08:11:05.637Z,4.18
2023-03-04T08:13:34.287Z,4.28
2023-03-04T08:16:01.890Z,4.15
2023-03-04T08:18:29.301Z,4.05
2023-03-04T08:20:56.587Z,4.30
2023-03-04T08:23:25.164Z,3.53
2023-03-04T08:25:53.126Z,3.83
2023-03-04T08:28:20.443Z,3.47
2023-03-04T08:30:53.036Z,3.78
2023-03-04T08:33:20.445Z,3.45
2023-03-04T08:35:47.879Z,3.20
2023-03-04T08:38:15.187Z,3.53
2023-03-04T08:40:42.532Z,2.70
2023-03-04T08:43:10.206Z,3.53
2023-03-04T08:45:37.671Z,3.28
2023-03-04T08:48:06.540Z,3.33
2023-03-04T08:50:33.843Z,2.83
2023-03-04T08:53:01.184Z,3.35
2023-03-04T08:55:28.536Z,3.00
2023-03-04T08:57:55.892Z,3.20
2023-03-04T09:00:23.702Z,3.08
2023-03-04T09:02:51.049Z,3.60
2023-03-04T09:05:19.762Z,3.17
2023-03-04T09:07:47.105Z,3.80
2023-03-04T09:10:14.440Z,3.88
2023-03-04T09:12:41.746Z,4.10
2023-03-04T09:15:11.888Z,3.60
2023-03-04T09:17:39.840Z,3.22
2023-03-04T09:20:08.598Z,2.78
2023-03-04T09:22:37.246Z,3.05
2023-03-04T09:25:04.964Z,2.00
2023-03-04T09:27:32.562Z,2.63
2023-03-04T09:29:59.857Z,1.95
2023-03-04T09:32:27.273Z,2.25
2023-03-04T09:34:54.627Z,2.22
2023-03-04T09:37:21.961Z,2.35
2023-03-04T09:39:51.074Z,2.25
2023-03-04T09:42:25.750Z,3.05
2023-03-04T09:44:54.086Z,2.67
2023-03-04T09:47:22.922Z,2.80
2023-03-04T09:49:53.533Z,3.20
2023-03-04T09:52:27.466Z,2.65
2023-03-04T09:55:03.115Z,2.60
2023-03-04T09:57:41.571Z,1.67
2023-03-04T10:00:13.729Z,3.20
2023-03-04T10:02:45.401Z,3.45
2023-03-04T10:05:15.817Z,3.20
2023-03-04T10:07:44.348Z,3.70
2023-03-04T10:10:14.481Z,3.15
2023-03-04T10:12:44.332Z,3.85
2023-03-04T10:15:19.806Z,4.20
2023-03-04T10:17:48.736Z,5.32
2023-03-04T10:20:19.476Z,4.22
2023-03-04T10:22:49.059Z,5.60
2023-03-04T10:25:19.805Z,6.78
2023-03-04T10:27:50.718Z,6.25
2023-03-04T10:30:20.611Z,3.05
2023-03-04T10:32:48.508Z,3.05
2023-03-04T10:35:15.906Z,2.95
2023-03-04T10:37:48.878Z,2.83
2023-03-04T10:40:21.675Z,3.35
2023-03-04T10:42:49.993Z,4.07
2023-03-04T10:45:21.627Z,4.03
2023-03-04T10:47:53.291Z,3.97
2023-03-04T10:50:24.126Z,3.33
2023-03-04T10:52:52.994Z,2.85
2023-03-04T10:55:23.063Z,2.65
2023-03-04T10:57:50.813Z,2.72
2023-03-04T11:00:29.723Z,2.90
2023-03-04T11:03:11.973Z,3.33
2023-03-04T11:05:39.323Z,3.45
2023-03-04T11:08:06.655Z,3.60
2023-03-04T11:10:41.623Z,3.25
2023-03-04T11:13:13.601Z,2.90
2023-03-04T11:15:49.761Z,3.75
2023-03-04T11:18:17.900Z,4.53
2023-03-04T11:20:48.317Z,8.23
2023-03-04T11:23:17.597Z,4.13
2023-03-04T11:25:48.281Z,2.30
2023-03-04T11:28:18.617Z,1.63
2023-03-04T11:30:48.176Z,1.70
2023-03-04T11:33:17.946Z,1.52
2023-03-04T11:35:49.150Z,1.73
2023-03-04T11:38:19.066Z,3.83
2023-03-04T11:40:50.310Z,3.95
2023-03-04T11:43:19.547Z,3.50
2023-03-04T11:45:59.384Z,2.85
2023-03-04T11:48:34.754Z,3.90
2023-03-04T11:51:05.567Z,2.70
2023-03-04T11:53:36.326Z,1.90
2023-03-04T11:56:13.385Z,2.92
2023-03-04T11:58:46.014Z,2.70
2023-03-04T12:01:16.074Z,2.38
2023-03-04T12:03:51.757Z,2.13
2023-03-04T12:06:25.660Z,1.92
2023-03-04T12:09:01.392Z,1.77
2023-03-04T12:11:39.403Z,2.00
2023-03-04T12:14:16.707Z,2.70
2023-03-04T12:16:54.559Z,2.67
2023-03-04T12:19:27.874Z,2.42
2023-03-04T12:22:00.857Z,3.63
2023-03-04T12:24:34.727Z,2.20
2023-03-04T12:27:10.087Z,1.93
2023-03-04T12:29:42.880Z,2.15
2023-03-04T12:32:14.548Z,1.90
2023-03-04T12:34:52.711Z,1.65
2023-03-04T12:37:26.510Z,1.77
2023-03-04T12:40:05.913Z,1.63
2023-03-04T12:42:38.812Z,1.70
2023-03-04T12:45:14.464Z,1.95
2023-03-04T12:47:46.668Z,2.17
2023-03-04T12:50:26.538Z,1.90
2023-03-04T12:52:58.735Z,1.90
2023-03-04T12:55:31.295Z,1.40
2023-03-04T12:58:00.133Z,1.50
2023-03-04T13:00:32.756Z,1.55
2023-03-04T13:03:08.869Z,1.63
2023-03-04T13:05:45.650Z,1.70
2023-03-04T13:08:19.692Z,1.60
2023-03-04T13:10:47.064Z,1.98
2023-03-04T13:13:33.920Z,2.22
2023-03-04T13:16:05.455Z,3.03
2023-03-04T13:18:34.999Z,2.67
2023-03-04T13:21:17.302Z,2.72
2023-03-04T13:23:44.767Z,2.10
2023-03-04T13:26:20.652Z,2.08
2023-03-04T13:28:52.655Z,1.83
2023-03-04T13:31:26.896Z,2.28
2023-03-04T13:33:58.529Z,1.95
2023-03-04T13:36:34.315Z,1.92
2023-03-04T13:39:02.355Z,2.58
2023-03-04T13:41:33.862Z,1.90
2023-03-04T13:44:01.840Z,1.75
2023-03-04T13:46:31.177Z,2.15
2023-03-04T13:49:03.662Z,1.67
2023-03-04T13:51:32.160Z,2.42
2023-03-04T13:54:08.869Z,3.50
2023-03-04T13:56:37.738Z,5.40
2023-03-04T13:59:11.143Z,4.35
2023-03-04T14:01:52.399Z,3.40
2023-03-04T14:04:20.462Z,3.38
2023-03-04T14:06:48.577Z,2.30
2023-03-04T14:09:16.440Z,2.35
2023-03-04T14:11:44.588Z,3.40
2023-03-04T14:14:13.231Z,2.22
2023-03-04T14:16:47.623Z,3.35
2023-03-04T14:19:16.870Z,2.45
2023-03-04T14:21:46.243Z,2.97
2023-03-04T14:24:18.451Z,2.85
2023-03-04T14:26:46.340Z,2.33
2023-03-04T14:29:24.228Z,2.60
2023-03-04T14:31:53.345Z,1.73
2023-03-04T14:34:24.978Z,2.33
2023-03-04T14:36:52.366Z,1.90
2023-03-04T14:39:20.516Z,2.50
2023-03-04T14:41:48.907Z,2.42
2023-03-04T14:44:19.501Z,2.40
2023-03-04T14:47:04.645Z,2.50
2023-03-04T14:49:36.155Z,3.08
2023-03-04T14:52:03.626Z,3.03
2023-03-04T14:54:33.066Z,2.55
2023-03-04T14:57:01.568Z,3.22
2023-03-04T14:59:30.082Z,2.45
2023-03-04T15:02:09.732Z,3.08
2023-03-04T15:04:40.926Z,3.05
2023-03-04T15:07:15.660Z,3.42
2023-03-04T15:12:10.833Z,2.95
2023-03-04T15:14:45.005Z,2.90
2023-03-04T15:17:24.102Z,3.38
2023-03-04T15:20:00.143Z,2.97
2023-03-04T15:22:27.588Z,2.60
2023-03-04T15:24:54.926Z,3.20
2023-03-04T15:27:23.893Z,2.80
2023-03-04T15:29:51.720Z,3.10
2023-03-04T15:32:19.068Z,2.30
2023-03-04T15:34:46.403Z,3.08
2023-03-04T15:37:16.311Z,2.85
2023-03-04T15:39:43.697Z,3.13
2023-03-04T15:42:13.287Z,3.65
2023-03-04T15:44:40.933Z,3.53
2023-03-04T15:47:12.882Z,2.40
2023-03-04T15:49:40.610Z,2.83
2023-03-04T15:52:08.256Z,3.50
2023-03-04T15:54:36.883Z,3.92
2023-03-04T15:57:06.977Z,3.53
2023-03-04T15:59:34.322Z,4.00
2023-03-04T16:02:01.721Z,4.18
2023-03-04T16:04:29.091Z,4.60
2023-03-04T16:06:59.251Z,4.43
2023-03-04T16:09:26.656Z,4.22
2023-03-04T16:12:01.542Z,4.60
2023-03-04T16:14:28.882Z,4.55
2023-03-04T16:16:56.240Z,4.55
2023-03-04T16:19:23.533Z,4.20
2023-03-04T16:21:50.838Z,3.97
2023-03-04T16:24:19.502Z,3.65
2023-03-04T16:26:47.167Z,5.55
2023-03-04T16:29:16.166Z,4.05
2023-03-04T16:31:43.472Z,4.20
2023-03-04T16:34:10.819Z,4.35
2023-03-04T16:36:38.184Z,3.88
2023-03-04T16:39:09.069Z,4.82
2023-03-04T16:41:36.982Z,4.43
2023-03-04T16:44:04.405Z,4.63
2023-03-04T16:46:33.063Z,4.93
2023-03-04T16:49:00.499Z,4.60
2023-03-04T16:51:27.797Z,5.25
2023-03-04T16:53:57.107Z,4.53
2023-03-04T16:56:24.844Z,5.43
2023-03-04T16:58:54.020Z,5.47
2023-03-04T17:01:22.543Z,5.60
2023-03-04T17:03:51.302Z,6.60
2023-03-04T17:06:19.051Z,6.00
2023-03-04T17:08:46.445Z,7.35
2023-03-04T17:11:16.722Z,5.57
2023-03-04T17:13:44.363Z,6.97
2023-03-04T17:16:12.686Z,7.38
2023-03-04T17:18:41.061Z,7.55
2023-03-04T17:21:12.204Z,9.30
2023-03-04T17:23:39.538Z,10.25
2023-03-04T17:26:07.072Z,9.27
2023-03-04T17:28:34.431Z,9.65
2023-03-04T17:31:01.928Z,9.82
2023-03-04T17:33:29.368Z,9.13
2023-03-04T17:35:58.076Z,7.97
2023-03-04T17:38:26.832Z,8.07
2023-03-04T17:40:55.946Z,8.32
2023-03-04T17:43:23.304Z,7.30
2023-03-04T17:45:50.699Z,7.75
2023-03-04T17:48:18.153Z,6.95
2023-03-04T17:50:49.171Z,7.32
2023-03-04T17:53:16.521Z,6.43
2023-03-04T17:55:50.713Z,6.90
2023-03-04T17:58:18.125Z,5.93
2023-03-04T18:00:45.526Z,5.78
2023-03-04T18:03:16.201Z,5.60
2023-03-04T18:05:43.793Z,4.60
2023-03-04T18:08:11.130Z,5.28
2023-03-04T18:10:38.708Z,4.70
2023-03-04T18:13:07.369Z,4.82
2023-03-04T18:15:34.715Z,3.88
2023-03-04T18:18:02.010Z,3.92
2023-03-04T18:20:29.338Z,4.18
2023-03-04T18:22:58.499Z,4.70
2023-03-04T18:25:25.920Z,4.15
2023-03-04T18:27:53.252Z,4.80
2023-03-04T18:30:27.045Z,4.55
2023-03-04T18:32:54.493Z,3.87
2023-03-04T18:35:22.050Z,4.13
2023-03-04T18:37:49.825Z,3.78
2023-03-04T18:40:17.368Z,5.32
2023-03-04T18:42:44.859Z,4.65
2023-03-04T18:45:12.823Z,21.58
2023-03-04T18:47:42.325Z,15.30
2023-03-04T18:50:10.893Z,18.33
2023-03-04T18:52:38.158Z,11.52
2023-03-04T18:55:06.070Z,19.27
2023-03-04T18:57:33.420Z,14.55
2023-03-04T19:00:01.171Z,11.63
2023-03-04T19:02:30.579Z,27.80
2023-03-04T19:05:01.720Z,19.60
2023-03-04T19:07:29.067Z,12.82
2023-03-04T19:09:56.376Z,8.10
2023-03-04T19:12:23.708Z,11.20
2023-03-04T19:14:51.005Z,102.53
2023-03-04T19:17:18.351Z,121.43
2023-03-04T19:19:45.813Z,168.23
2023-03-04T19:22:14.516Z,98.63
2023-03-04T19:24:41.841Z,151.38
2023-03-04T19:27:09.223Z,72.18
2023-03-04T19:29:36.672Z,33.15
2023-03-04T19:32:04.051Z,15.98
2023-03-04T19:34:31.436Z,36.05
2023-03-04T19:36:58.823Z,34.85
2023-03-04T19:39:27.582Z,36.40
2023-03-04T19:41:54.872Z,9.80
2023-03-04T19:44:22.292Z,35.33
2023-03-04T19:46:49.648Z,14.52
2023-03-04T19:49:16.973Z,20.52
2023-03-04T19:51:44.444Z,11.18
2023-03-04T19:54:11.834Z,6.63
2023-03-04T19:56:40.508Z,10.52
2023-03-04T19:59:08.085Z,5.18
2023-03-04T20:01:36.691Z,5.75
2023-03-04T20:04:05.337Z,6.28
2023-03-04T20:06:32.733Z,3.88
2023-03-04T20:09:00.968Z,7.95
2023-03-04T20:11:28.828Z,22.90
2023-03-04T20:13:58.410Z,33.00
2023-03-04T20:16:25.883Z,21.33
2023-03-04T20:18:53.193Z,29.58
2023-03-04T20:21:20.916Z,6.35
2023-03-04T20:23:48.239Z,27.27
2023-03-04T20:26:15.574Z,20.95
2023-03-04T20:28:42.889Z,5.65
2023-03-04T20:31:12.462Z,10.85
2023-03-04T20:33:39.840Z,12.15
2023-03-04T20:36:07.284Z,62.55
2023-03-04T20:38:34.639Z,63.60
2023-03-04T20:41:02.174Z,14.15
2023-03-04T20:43:31.075Z,80.70
2023-03-04T20:46:13.299Z,18.95
2023-03-04T20:48:42.085Z,17.60
2023-03-04T20:51:09.382Z,15.05
2023-03-04T20:53:36.750Z,13.48
2023-03-04T20:56:04.199Z,17.65
2023-03-04T20:58:31.596Z,6.53
2023-03-04T21:00:58.909Z,9.23
2023-03-04T21:03:26.264Z,6.28
2023-03-04T21:05:54.923Z,4.70
2023-03-04T21:08:22.580Z,21.27
2023-03-04T21:10:49.944Z,4.63
2023-03-04T21:13:20.054Z,5.00
2023-03-04T21:15:47.681Z,4.90
2023-03-04T21:18:14.993Z,4.55
2023-03-04T21:20:44.552Z,7.55
2023-03-04T21:23:13.245Z,3.58
2023-03-04T21:25:41.321Z,3.33
2023-03-04T21:28:08.703Z,3.70
2023-03-04T21:30:36.023Z,3.58
2023-03-04T21:33:05.379Z,6.70
2023-03-04T21:35:33.716Z,8.73
2023-03-04T21:38:01.199Z,4.70
2023-03-04T21:40:30.034Z,5.18
2023-03-04T21:42:57.371Z,7.28
2023-03-04T21:45:24.740Z,18.30
2023-03-04T21:47:55.070Z,4.60
2023-03-04T21:50:22.463Z,3.30
2023-03-04T21:52:49.773Z,4.03
2023-03-04T21:55:17.265Z,3.38
2023-03-04T21:57:45.973Z,4.15
2023-03-04T22:00:14.185Z,3.83
2023-03-04T22:02:41.517Z,3.30
2023-03-04T22:05:09.046Z,2.70
2023-03-04T22:07:36.385Z,2.65
2023-03-04T22:10:06.470Z,2.47
2023-03-04T22:12:33.854Z,3.65
2023-03-04T22:15:02.674Z,2.75
2023-03-04T22:17:30.001Z,3.63
2023-03-04T22:19:57.453Z,3.47
2023-03-04T22:22:24.829Z,2.63
2023-03-04T22:24:53.172Z,3.50
2023-03-04T22:27:21.449Z,3.17
2023-03-04T22:29:48.794Z,2.83
2023-03-04T22:32:17.903Z,3.22
2023-03-04T22:34:45.239Z,3.30
2023-03-04T22:37:12.528Z,2.63
2023-03-04T22:39:40.164Z,3.28
2023-03-04T22:42:08.057Z,2.95
2023-03-04T22:44:35.694Z,2.70
2023-03-04T22:47:03.006Z,3.00
2023-03-04T22:49:33.096Z,2.90
2023-03-04T22:52:00.466Z,3.28
2023-03-04T22:54:29.522Z,2.85
2023-03-04T22:56:56.859Z,2.83
2023-03-04T22:59:24.243Z,3.00
2023-03-04T23:01:51.534Z,2.65
2023-03-04T23:04:18.804Z,3.67
2023-03-04T23:06:47.564Z,2.47
2023-03-04T23:09:15.264Z,2.50
2023-03-04T23:11:42.639Z,2.40
2023-03-04T23:14:11.709Z,2.38
2023-03-04T23:16:43.028Z,2.80
2023-03-04T23:19:12.488Z,2.80
2023-03-04T23:21:39.944Z,2.55
2023-03-04T23:24:09.169Z,2.92
2023-03-04T23:26:38.579Z,2.40
2023-03-04T23:29:07.000Z,2.85
2023-03-04T23:31:35.066Z,2.72
2023-03-04T23:34:02.768Z,2.97
2023-03-04T23:36:32.144Z,2.45
2023-03-04T23:39:00.246Z,2.75
2023-03-04T23:41:30.056Z,3.05
2023-03-04T23:43:58.053Z,2.90
2023-03-04T23:46:25.454Z,2.85
2023-03-04T23:48:53.247Z,2.53
2023-03-04T23:51:21.882Z,2.67
2023-03-04T23:53:49.233Z,2.72
2023-03-04T23:56:17.694Z,2.83
2023-03-04T23:58:46.459Z,2.75
